sensor_id;sensor_type;location;lat;lon;timestamp;P1;durP1;ratioP1;P2;durP2;ratioP2
26686;SDS011;14298;50.900;4.648;2023-06-14T00:01:42;3.63;;;2.47;;
26686;SDS011;14298;50.900;4.648;2023-06-14T00:04:11;1.80;;;1.70;;
26686;SDS011;14298;50.900;4.648;2023-06-14T00:06:40;3.43;;;2.93;;
26686;SDS011;14298;50.900;4.648;2023-06-14T00:09:08;2.63;;;1.93;;
26686;SDS011;14298;50.900;4.648;2023-06-14T00:11:36;2.53;;;2.33;;
26686;SDS011;14298;50.900;4.648;2023-06-14T00:14:04;5.23;;;2.17;;
26686;SDS011;14298;50.900;4.648;2023-06-14T00:16:33;2.43;;;2.20;;
26686;SDS011;14298;50.900;4.648;2023-06-14T00:19:02;2.67;;;2.40;;
26686;SDS011;14298;50.900;4.648;2023-06-14T00:21:33;2.93;;;2.13;;
26686;SDS011;14298;50.900;4.648;2023-06-14T00:24:02;2.37;;;2.17;;
26686;SDS011;14298;50.900;4.648;2023-06-14T00:26:33;2.47;;;2.27;;
26686;SDS011;14298;50.900;4.648;2023-06-14T00:29:01;3.93;;;1.80;;
26686;SDS011;14298;50.900;4.648;2023-06-14T00:31:29;2.17;;;1.70;;
26686;SDS011;14298;50.900;4.648;2023-06-14T00:33:57;2.73;;;2.53;;
26686;SDS011;14298;50.900;4.648;2023-06-14T00:36:25;2.30;;;2.13;;
26686;SDS011;14298;50.900;4.648;2023-06-14T00:38:53;2.37;;;2.17;;
26686;SDS011;14298;50.900;4.648;2023-06-14T00:41:21;2.90;;;2.40;;
26686;SDS011;14298;50.900;4.648;2023-06-14T00:43:50;5.30;;;2.93;;
26686;SDS011;14298;50.900;4.648;2023-06-14T00:46:18;2.70;;;2.40;;
26686;SDS011;14298;50.900;4.648;2023-06-14T00:48:46;2.70;;;2.20;;
26686;SDS011;14298;50.900;4.648;2023-06-14T00:51:15;3.67;;;2.50;;
26686;SDS011;14298;50.900;4.648;2023-06-14T00:53:44;2.33;;;2.13;;
26686;SDS011;14298;50.900;4.648;2023-06-14T00:56:14;2.87;;;2.43;;
26686;SDS011;14298;50.900;4.648;2023-06-14T00:58:42;3.67;;;2.30;;
26686;SDS011;14298;50.900;4.648;2023-06-14T01:01:10;2.67;;;2.30;;
26686;SDS011;14298;50.900;4.648;2023-06-14T01:03:38;4.17;;;2.53;;
26686;SDS011;14298;50.900;4.648;2023-06-14T01:08:41;5.83;;;2.83;;
26686;SDS011;14298;50.900;4.648;2023-06-14T01:11:16;4.53;;;2.73;;
26686;SDS011;14298;50.900;4.648;2023-06-14T01:13:43;2.53;;;2.33;;
26686;SDS011;14298;50.900;4.648;2023-06-14T01:16:12;3.13;;;2.77;;
26686;SDS011;14298;50.900;4.648;2023-06-14T01:18:41;2.37;;;2.10;;
26686;SDS011;14298;50.900;4.648;2023-06-14T01:21:21;2.03;;;1.87;;
26686;SDS011;14298;50.900;4.648;2023-06-14T01:23:49;2.57;;;2.37;;
26686;SDS011;14298;50.900;4.648;2023-06-14T01:26:22;2.67;;;2.40;;
26686;SDS011;14298;50.900;4.648;2023-06-14T01:28:50;4.37;;;2.93;;
26686;SDS011;14298;50.900;4.648;2023-06-14T01:34:08;6.40;;;2.37;;
26686;SDS011;14298;50.900;4.648;2023-06-14T01:36:36;2.87;;;2.13;;
26686;SDS011;14298;50.900;4.648;2023-06-14T01:39:05;2.73;;;2.23;;
26686;SDS011;14298;50.900;4.648;2023-06-14T01:41:39;2.37;;;2.20;;
26686;SDS011;14298;50.900;4.648;2023-06-14T01:44:03;2.43;;;2.23;;
26686;SDS011;14298;50.900;4.648;2023-06-14T01:46:32;4.03;;;2.60;;
26686;SDS011;14298;50.900;4.648;2023-06-14T01:49:00;2.57;;;2.10;;
26686;SDS011;14298;50.900;4.648;2023-06-14T01:51:29;2.70;;;2.37;;
26686;SDS011;14298;50.900;4.648;2023-06-14T01:53:57;2.37;;;2.17;;
26686;SDS011;14298;50.900;4.648;2023-06-14T01:56:27;4.40;;;3.03;;
26686;SDS011;14298;50.900;4.648;2023-06-14T01:58:55;2.77;;;2.57;;
26686;SDS011;14298;50.900;4.648;2023-06-14T02:01:23;2.67;;;2.47;;
26686;SDS011;14298;50.900;4.648;2023-06-14T02:03:51;2.53;;;2.37;;
26686;SDS011;14298;50.900;4.648;2023-06-14T02:06:20;2.63;;;2.43;;
26686;SDS011;14298;50.900;4.648;2023-06-14T02:08:48;9.63;;;2.73;;
26686;SDS011;14298;50.900;4.648;2023-06-14T02:11:17;9.27;;;3.83;;
26686;SDS011;14298;50.900;4.648;2023-06-14T02:13:45;5.37;;;2.47;;
26686;SDS011;14298;50.900;4.648;2023-06-14T02:16:13;2.53;;;2.17;;
26686;SDS011;14298;50.900;4.648;2023-06-14T02:18:41;3.83;;;3.43;;
26686;SDS011;14298;50.900;4.648;2023-06-14T02:21:09;2.90;;;2.63;;
26686;SDS011;14298;50.900;4.648;2023-06-14T02:23:37;4.17;;;2.00;;
26686;SDS011;14298;50.900;4.648;2023-06-14T02:26:05;4.57;;;2.47;;
26686;SDS011;14298;50.900;4.648;2023-06-14T02:28:33;2.80;;;2.53;;
26686;SDS011;14298;50.900;4.648;2023-06-14T02:31:02;3.43;;;2.63;;
26686;SDS011;14298;50.900;4.648;2023-06-14T02:36:18;2.80;;;2.53;;
26686;SDS011;14298;50.900;4.648;2023-06-14T02:41:33;1.83;;;1.73;;
26686;SDS011;14298;50.900;4.648;2023-06-14T02:44:07;3.60;;;3.00;;
26686;SDS011;14298;50.900;4.648;2023-06-14T02:46:35;5.40;;;2.00;;
26686;SDS011;14298;50.900;4.648;2023-06-14T02:49:03;4.53;;;3.33;;
26686;SDS011;14298;50.900;4.648;2023-06-14T02:51:32;2.80;;;2.60;;
26686;SDS011;14298;50.900;4.648;2023-06-14T02:54:00;2.83;;;2.57;;
26686;SDS011;14298;50.900;4.648;2023-06-14T02:56:28;3.80;;;3.20;;
26686;SDS011;14298;50.900;4.648;2023-06-14T02:58:56;3.17;;;2.87;;
26686;SDS011;14298;50.900;4.648;2023-06-14T03:01:25;3.57;;;3.03;;
26686;SDS011;14298;50.900;4.648;2023-06-14T03:03:55;5.13;;;3.20;;
26686;SDS011;14298;50.900;4.648;2023-06-14T03:06:24;3.93;;;3.30;;
26686;SDS011;14298;50.900;4.648;2023-06-14T03:08:52;3.60;;;3.17;;
26686;SDS011;14298;50.900;4.648;2023-06-14T03:11:21;5.77;;;2.97;;
26686;SDS011;14298;50.900;4.648;2023-06-14T03:13:50;3.20;;;2.90;;
26686;SDS011;14298;50.900;4.648;2023-06-14T03:16:19;2.57;;;2.20;;
26686;SDS011;14298;50.900;4.648;2023-06-14T03:18:48;3.40;;;3.10;;
26686;SDS011;14298;50.900;4.648;2023-06-14T03:21:17;2.93;;;2.63;;
26686;SDS011;14298;50.900;4.648;2023-06-14T03:23:46;1.87;;;1.77;;
26686;SDS011;14298;50.900;4.648;2023-06-14T03:26:15;4.17;;;3.40;;
26686;SDS011;14298;50.900;4.648;2023-06-14T03:28:45;5.33;;;3.10;;
26686;SDS011;14298;50.900;4.648;2023-06-14T03:31:13;3.37;;;2.97;;
26686;SDS011;14298;50.900;4.648;2023-06-14T03:36:29;4.00;;;2.60;;
26686;SDS011;14298;50.900;4.648;2023-06-14T03:38:57;3.00;;;2.77;;
26686;SDS011;14298;50.900;4.648;2023-06-14T03:41:25;2.03;;;1.93;;
26686;SDS011;14298;50.900;4.648;2023-06-14T03:43:53;3.47;;;3.07;;
26686;SDS011;14298;50.900;4.648;2023-06-14T03:46:21;2.43;;;2.23;;
26686;SDS011;14298;50.900;4.648;2023-06-14T03:48:49;2.20;;;1.90;;
26686;SDS011;14298;50.900;4.648;2023-06-14T03:51:17;3.77;;;2.77;;
26686;SDS011;14298;50.900;4.648;2023-06-14T03:53:45;2.87;;;2.57;;
26686;SDS011;14298;50.900;4.648;2023-06-14T03:56:13;3.07;;;2.77;;
26686;SDS011;14298;50.900;4.648;2023-06-14T03:58:41;3.33;;;2.43;;
26686;SDS011;14298;50.900;4.648;2023-06-14T04:01:09;4.63;;;3.00;;
26686;SDS011;14298;50.900;4.648;2023-06-14T04:03:39;5.87;;;3.10;;
26686;SDS011;14298;50.900;4.648;2023-06-14T04:06:09;3.40;;;3.10;;
26686;SDS011;14298;50.900;4.648;2023-06-14T04:08:37;2.57;;;2.37;;
26686;SDS011;14298;50.900;4.648;2023-06-14T04:11:06;2.00;;;1.90;;
26686;SDS011;14298;50.900;4.648;2023-06-14T04:13:34;2.70;;;2.50;;
26686;SDS011;14298;50.900;4.648;2023-06-14T04:16:03;2.80;;;2.57;;
26686;SDS011;14298;50.900;4.648;2023-06-14T04:18:31;2.80;;;2.40;;
26686;SDS011;14298;50.900;4.648;2023-06-14T04:20:59;2.50;;;2.30;;
26686;SDS011;14298;50.900;4.648;2023-06-14T04:23:27;4.47;;;2.93;;
26686;SDS011;14298;50.900;4.648;2023-06-14T04:25:55;3.93;;;2.50;;
26686;SDS011;14298;50.900;4.648;2023-06-14T04:28:25;2.83;;;2.60;;
26686;SDS011;14298;50.900;4.648;2023-06-14T04:30:54;2.80;;;2.60;;
26686;SDS011;14298;50.900;4.648;2023-06-14T04:33:22;3.47;;;3.07;;
26686;SDS011;14298;50.900;4.648;2023-06-14T04:35:51;3.50;;;3.20;;
26686;SDS011;14298;50.900;4.648;2023-06-14T04:38:20;4.13;;;3.17;;
26686;SDS011;14298;50.900;4.648;2023-06-14T04:40:50;5.83;;;2.33;;
26686;SDS011;14298;50.900;4.648;2023-06-14T04:43:19;2.30;;;2.13;;
26686;SDS011;14298;50.900;4.648;2023-06-14T04:45:49;4.10;;;2.77;;
26686;SDS011;14298;50.900;4.648;2023-06-14T04:48:18;3.40;;;3.10;;
26686;SDS011;14298;50.900;4.648;2023-06-14T04:50:47;3.33;;;3.03;;
26686;SDS011;14298;50.900;4.648;2023-06-14T04:53:17;3.80;;;2.70;;
26686;SDS011;14298;50.900;4.648;2023-06-14T04:55:47;3.80;;;3.00;;
26686;SDS011;14298;50.900;4.648;2023-06-14T04:58:15;4.03;;;2.93;;
26686;SDS011;14298;50.900;4.648;2023-06-14T05:00:43;5.07;;;2.87;;
26686;SDS011;14298;50.900;4.648;2023-06-14T05:03:11;5.40;;;2.80;;
26686;SDS011;14298;50.900;4.648;2023-06-14T05:05:40;8.93;;;3.50;;
26686;SDS011;14298;50.900;4.648;2023-06-14T05:08:08;3.53;;;3.13;;
26686;SDS011;14298;50.900;4.648;2023-06-14T05:10:36;5.70;;;3.30;;
26686;SDS011;14298;50.900;4.648;2023-06-14T05:13:04;4.33;;;3.07;;
26686;SDS011;14298;50.900;4.648;2023-06-14T05:15:32;3.97;;;2.90;;
26686;SDS011;14298;50.900;4.648;2023-06-14T05:18:01;3.40;;;2.97;;
26686;SDS011;14298;50.900;4.648;2023-06-14T05:20:29;3.67;;;3.03;;
26686;SDS011;14298;50.900;4.648;2023-06-14T05:22:57;3.30;;;2.43;;
26686;SDS011;14298;50.900;4.648;2023-06-14T05:25:25;2.53;;;2.33;;
26686;SDS011;14298;50.900;4.648;2023-06-14T05:27:55;5.87;;;3.67;;
26686;SDS011;14298;50.900;4.648;2023-06-14T05:30:23;2.40;;;2.20;;
26686;SDS011;14298;50.900;4.648;2023-06-14T05:32:51;5.70;;;3.20;;
26686;SDS011;14298;50.900;4.648;2023-06-14T05:35:19;5.33;;;2.90;;
26686;SDS011;14298;50.900;4.648;2023-06-14T05:37:49;3.33;;;2.80;;
26686;SDS011;14298;50.900;4.648;2023-06-14T05:40:17;3.87;;;2.07;;
26686;SDS011;14298;50.900;4.648;2023-06-14T05:42:45;2.43;;;2.13;;
26686;SDS011;14298;50.900;4.648;2023-06-14T05:45:13;6.90;;;3.10;;
26686;SDS011;14298;50.900;4.648;2023-06-14T05:47:43;4.00;;;2.50;;
26686;SDS011;14298;50.900;4.648;2023-06-14T05:50:11;5.33;;;2.70;;
26686;SDS011;14298;50.900;4.648;2023-06-14T05:52:39;2.80;;;2.60;;
26686;SDS011;14298;50.900;4.648;2023-06-14T05:55:07;3.10;;;2.80;;
26686;SDS011;14298;50.900;4.648;2023-06-14T05:57:35;3.23;;;2.63;;
26686;SDS011;14298;50.900;4.648;2023-06-14T06:00:04;2.60;;;2.40;;
26686;SDS011;14298;50.900;4.648;2023-06-14T06:02:44;5.20;;;3.63;;
26686;SDS011;14298;50.900;4.648;2023-06-14T06:05:13;8.97;;;2.87;;
26686;SDS011;14298;50.900;4.648;2023-06-14T06:07:42;4.30;;;3.30;;
26686;SDS011;14298;50.900;4.648;2023-06-14T06:10:13;2.83;;;2.57;;
26686;SDS011;14298;50.900;4.648;2023-06-14T06:12:41;4.23;;;2.97;;
26686;SDS011;14298;50.900;4.648;2023-06-14T06:15:10;3.10;;;2.73;;
26686;SDS011;14298;50.900;4.648;2023-06-14T06:17:41;5.10;;;3.47;;
26686;SDS011;14298;50.900;4.648;2023-06-14T06:20:09;4.23;;;3.07;;
26686;SDS011;14298;50.900;4.648;2023-06-14T06:22:38;4.10;;;2.80;;
26686;SDS011;14298;50.900;4.648;2023-06-14T06:25:06;4.60;;;3.13;;
26686;SDS011;14298;50.900;4.648;2023-06-14T06:27:35;3.37;;;2.43;;
26686;SDS011;14298;50.900;4.648;2023-06-14T06:30:05;3.30;;;2.87;;
26686;SDS011;14298;50.900;4.648;2023-06-14T06:32:33;4.53;;;3.30;;
26686;SDS011;14298;50.900;4.648;2023-06-14T06:35:01;3.23;;;2.73;;
26686;SDS011;14298;50.900;4.648;2023-06-14T06:37:30;3.00;;;2.60;;
26686;SDS011;14298;50.900;4.648;2023-06-14T06:39:58;3.80;;;3.03;;
26686;SDS011;14298;50.900;4.648;2023-06-14T06:42:26;5.50;;;3.03;;
26686;SDS011;14298;50.900;4.648;2023-06-14T06:44:54;4.90;;;3.12;;
26686;SDS011;14298;50.900;4.648;2023-06-14T06:47:22;4.72;;;2.42;;
26686;SDS011;14298;50.900;4.648;2023-06-14T06:49:50;8.60;;;3.00;;
26686;SDS011;14298;50.900;4.648;2023-06-14T06:52:19;2.77;;;2.40;;
26686;SDS011;14298;50.900;4.648;2023-06-14T06:54:47;3.45;;;3.15;;
26686;SDS011;14298;50.900;4.648;2023-06-14T06:57:16;2.60;;;2.37;;
26686;SDS011;14298;50.900;4.648;2023-06-14T06:59:44;5.05;;;3.20;;
26686;SDS011;14298;50.900;4.648;2023-06-14T07:02:12;2.45;;;2.25;;
26686;SDS011;14298;50.900;4.648;2023-06-14T07:04:40;4.35;;;2.77;;
26686;SDS011;14298;50.900;4.648;2023-06-14T07:07:08;4.33;;;2.62;;
26686;SDS011;14298;50.900;4.648;2023-06-14T07:09:39;3.60;;;2.60;;
26686;SDS011;14298;50.900;4.648;2023-06-14T07:12:09;3.33;;;2.77;;
26686;SDS011;14298;50.900;4.648;2023-06-14T07:14:38;3.60;;;2.37;;
26686;SDS011;14298;50.900;4.648;2023-06-14T07:17:07;5.03;;;3.25;;
26686;SDS011;14298;50.900;4.648;2023-06-14T07:19:35;2.70;;;2.45;;
26686;SDS011;14298;50.900;4.648;2023-06-14T07:22:03;2.63;;;2.43;;
26686;SDS011;14298;50.900;4.648;2023-06-14T07:24:31;2.40;;;2.10;;
26686;SDS011;14298;50.900;4.648;2023-06-14T07:26:59;3.42;;;2.35;;
26686;SDS011;14298;50.900;4.648;2023-06-14T07:29:28;2.97;;;2.10;;
26686;SDS011;14298;50.900;4.648;2023-06-14T07:31:56;3.50;;;1.90;;
26686;SDS011;14298;50.900;4.648;2023-06-14T07:34:24;2.98;;;2.55;;
26686;SDS011;14298;50.900;4.648;2023-06-14T07:36:53;4.95;;;3.20;;
26686;SDS011;14298;50.900;4.648;2023-06-14T07:39:21;2.50;;;1.65;;
26686;SDS011;14298;50.900;4.648;2023-06-14T07:41:49;3.75;;;2.20;;
26686;SDS011;14298;50.900;4.648;2023-06-14T07:44:17;3.10;;;2.05;;
26686;SDS011;14298;50.900;4.648;2023-06-14T07:46:45;3.35;;;2.50;;
26686;SDS011;14298;50.900;4.648;2023-06-14T07:49:14;2.35;;;2.10;;
26686;SDS011;14298;50.900;4.648;2023-06-14T07:51:42;2.72;;;2.15;;
26686;SDS011;14298;50.900;4.648;2023-06-14T07:54:12;3.62;;;2.42;;
26686;SDS011;14298;50.900;4.648;2023-06-14T07:56:41;3.20;;;2.33;;
26686;SDS011;14298;50.900;4.648;2023-06-14T07:59:09;11.55;;;2.85;;
26686;SDS011;14298;50.900;4.648;2023-06-14T08:01:37;4.20;;;2.83;;
26686;SDS011;14298;50.900;4.648;2023-06-14T08:04:06;3.52;;;2.77;;
26686;SDS011;14298;50.900;4.648;2023-06-14T08:06:34;2.87;;;2.37;;
26686;SDS011;14298;50.900;4.648;2023-06-14T08:09:02;4.33;;;2.90;;
26686;SDS011;14298;50.900;4.648;2023-06-14T08:11:30;3.20;;;2.77;;
26686;SDS011;14298;50.900;4.648;2023-06-14T08:13:58;3.00;;;2.08;;
26686;SDS011;14298;50.900;4.648;2023-06-14T08:16:26;5.97;;;2.37;;
26686;SDS011;14298;50.900;4.648;2023-06-14T08:22:01;2.52;;;2.10;;
26686;SDS011;14298;50.900;4.648;2023-06-14T08:24:30;2.92;;;2.35;;
26686;SDS011;14298;50.900;4.648;2023-06-14T08:26:59;4.12;;;2.50;;
26686;SDS011;14298;50.900;4.648;2023-06-14T08:29:28;3.08;;;2.20;;
26686;SDS011;14298;50.900;4.648;2023-06-14T08:31:59;2.12;;;1.80;;
26686;SDS011;14298;50.900;4.648;2023-06-14T08:34:27;4.12;;;2.75;;
26686;SDS011;14298;50.900;4.648;2023-06-14T08:36:55;2.58;;;2.33;;
26686;SDS011;14298;50.900;4.648;2023-06-14T08:39:23;3.00;;;2.70;;
26686;SDS011;14298;50.900;4.648;2023-06-14T08:41:52;5.92;;;3.10;;
26686;SDS011;14298;50.900;4.648;2023-06-14T08:44:20;7.45;;;2.67;;
26686;SDS011;14298;50.900;4.648;2023-06-14T08:46:48;3.45;;;2.50;;
26686;SDS011;14298;50.900;4.648;2023-06-14T08:49:16;3.30;;;2.35;;
26686;SDS011;14298;50.900;4.648;2023-06-14T08:51:44;2.40;;;2.02;;
26686;SDS011;14298;50.900;4.648;2023-06-14T08:54:14;3.02;;;2.30;;
26686;SDS011;14298;50.900;4.648;2023-06-14T08:56:43;2.67;;;2.47;;
26686;SDS011;14298;50.900;4.648;2023-06-14T08:59:11;4.67;;;2.70;;
26686;SDS011;14298;50.900;4.648;2023-06-14T09:01:39;5.63;;;2.53;;
26686;SDS011;14298;50.900;4.648;2023-06-14T09:04:07;2.97;;;2.10;;
26686;SDS011;14298;50.900;4.648;2023-06-14T09:06:35;4.43;;;2.93;;
26686;SDS011;14298;50.900;4.648;2023-06-14T09:09:03;4.67;;;2.60;;
26686;SDS011;14298;50.900;4.648;2023-06-14T09:11:31;2.92;;;2.05;;
26686;SDS011;14298;50.900;4.648;2023-06-14T09:14:00;2.95;;;2.27;;
26686;SDS011;14298;50.900;4.648;2023-06-14T09:16:28;2.30;;;2.10;;
26686;SDS011;14298;50.900;4.648;2023-06-14T09:18:56;3.08;;;2.47;;
26686;SDS011;14298;50.900;4.648;2023-06-14T09:21:24;6.03;;;2.60;;
26686;SDS011;14298;50.900;4.648;2023-06-14T09:23:52;2.62;;;2.37;;
26686;SDS011;14298;50.900;4.648;2023-06-14T09:26:20;3.33;;;2.77;;
26686;SDS011;14298;50.900;4.648;2023-06-14T09:28:50;4.58;;;2.75;;
26686;SDS011;14298;50.900;4.648;2023-06-14T09:31:19;9.78;;;2.25;;
26686;SDS011;14298;50.900;4.648;2023-06-14T09:33:48;3.40;;;1.77;;
26686;SDS011;14298;50.900;4.648;2023-06-14T09:36:18;2.47;;;1.82;;
26686;SDS011;14298;50.900;4.648;2023-06-14T09:38:59;2.62;;;2.15;;
26686;SDS011;14298;50.900;4.648;2023-06-14T09:41:39;2.75;;;1.95;;
26686;SDS011;14298;50.900;4.648;2023-06-14T09:44:04;4.33;;;2.52;;
26686;SDS011;14298;50.900;4.648;2023-06-14T09:46:33;2.42;;;1.90;;
26686;SDS011;14298;50.900;4.648;2023-06-14T09:49:02;2.27;;;1.65;;
26686;SDS011;14298;50.900;4.648;2023-06-14T09:51:31;2.52;;;1.92;;
26686;SDS011;14298;50.900;4.648;2023-06-14T09:53:59;2.52;;;1.47;;
26686;SDS011;14298;50.900;4.648;2023-06-14T09:56:28;3.75;;;1.92;;
26686;SDS011;14298;50.900;4.648;2023-06-14T09:58:57;2.15;;;1.95;;
26686;SDS011;14298;50.900;4.648;2023-06-14T10:01:26;1.67;;;1.57;;
26686;SDS011;14298;50.900;4.648;2023-06-14T10:03:55;3.35;;;2.20;;
26686;SDS011;14298;50.900;4.648;2023-06-14T10:06:23;3.83;;;2.02;;
26686;SDS011;14298;50.900;4.648;2023-06-14T10:08:53;2.50;;;1.87;;
26686;SDS011;14298;50.900;4.648;2023-06-14T10:11:22;1.67;;;1.57;;
26686;SDS011;14298;50.900;4.648;2023-06-14T10:13:50;1.98;;;1.77;;
26686;SDS011;14298;50.900;4.648;2023-06-14T10:16:20;2.15;;;1.92;;
26686;SDS011;14298;50.900;4.648;2023-06-14T10:18:49;6.22;;;1.98;;
26686;SDS011;14298;50.900;4.648;2023-06-14T10:24:01;3.20;;;1.27;;
26686;SDS011;14298;50.900;4.648;2023-06-14T10:29:22;2.15;;;1.50;;
26686;SDS011;14298;50.900;4.648;2023-06-14T10:31:53;1.62;;;1.20;;
26686;SDS011;14298;50.900;4.648;2023-06-14T10:34:27;1.92;;;1.75;;
26686;SDS011;14298;50.900;4.648;2023-06-14T10:37:02;1.90;;;1.60;;
26686;SDS011;14298;50.900;4.648;2023-06-14T10:39:31;2.05;;;1.47;;
26686;SDS011;14298;50.900;4.648;2023-06-14T10:42:01;2.67;;;1.50;;
26686;SDS011;14298;50.900;4.648;2023-06-14T10:44:32;1.43;;;1.33;;
26686;SDS011;14298;50.900;4.648;2023-06-14T10:47:00;1.90;;;1.40;;
26686;SDS011;14298;50.900;4.648;2023-06-14T10:52:24;1.27;;;1.17;;
26686;SDS011;14298;50.900;4.648;2023-06-14T11:00:16;1.20;;;1.10;;
26686;SDS011;14298;50.900;4.648;2023-06-14T11:05:31;0.80;;;0.80;;
26686;SDS011;14298;50.900;4.648;2023-06-14T11:13:38;2.30;;;1.67;;
26686;SDS011;14298;50.900;4.648;2023-06-14T11:16:11;1.60;;;1.50;;
26686;SDS011;14298;50.900;4.648;2023-06-14T11:18:39;1.00;;;0.90;;
26686;SDS011;14298;50.900;4.648;2023-06-14T11:21:07;1.40;;;1.30;;
26686;SDS011;14298;50.900;4.648;2023-06-14T11:23:37;1.70;;;1.60;;
26686;SDS011;14298;50.900;4.648;2023-06-14T11:26:05;2.30;;;1.43;;
26686;SDS011;14298;50.900;4.648;2023-06-14T11:28:41;8.30;;;1.80;;
26686;SDS011;14298;50.900;4.648;2023-06-14T11:31:05;2.20;;;1.40;;
26686;SDS011;14298;50.900;4.648;2023-06-14T11:33:34;2.37;;;1.87;;
26686;SDS011;14298;50.900;4.648;2023-06-14T11:36:02;1.23;;;1.13;;
26686;SDS011;14298;50.900;4.648;2023-06-14T11:38:34;1.73;;;1.23;;
26686;SDS011;14298;50.900;4.648;2023-06-14T11:41:01;1.70;;;1.40;;
26686;SDS011;14298;50.900;4.648;2023-06-14T11:43:29;5.43;;;1.53;;
26686;SDS011;14298;50.900;4.648;2023-06-14T11:45:59;2.97;;;1.70;;
26686;SDS011;14298;50.900;4.648;2023-06-14T11:48:38;2.55;;;1.80;;
26686;SDS011;14298;50.900;4.648;2023-06-14T11:51:02;2.92;;;1.47;;
26686;SDS011;14298;50.900;4.648;2023-06-14T11:53:30;2.37;;;1.60;;
26686;SDS011;14298;50.900;4.648;2023-06-14T11:55:59;1.27;;;1.17;;
26686;SDS011;14298;50.900;4.648;2023-06-14T11:58:27;1.23;;;1.13;;
26686;SDS011;14298;50.900;4.648;2023-06-14T12:00:57;3.37;;;1.37;;
26686;SDS011;14298;50.900;4.648;2023-06-14T12:03:25;1.57;;;1.43;;
26686;SDS011;14298;50.900;4.648;2023-06-14T12:06:08;2.03;;;1.57;;
26686;SDS011;14298;50.900;4.648;2023-06-14T12:08:37;3.23;;;1.50;;
26686;SDS011;14298;50.900;4.648;2023-06-14T12:13:56;1.43;;;1.33;;
26686;SDS011;14298;50.900;4.648;2023-06-14T12:16:29;1.63;;;1.53;;
26686;SDS011;14298;50.900;4.648;2023-06-14T12:18:53;2.90;;;1.47;;
26686;SDS011;14298;50.900;4.648;2023-06-14T12:21:22;1.67;;;1.10;;
26686;SDS011;14298;50.900;4.648;2023-06-14T12:23:50;2.20;;;1.42;;
26686;SDS011;14298;50.900;4.648;2023-06-14T12:26:19;1.55;;;1.20;;
26686;SDS011;14298;50.900;4.648;2023-06-14T12:28:47;1.15;;;1.00;;
26686;SDS011;14298;50.900;4.648;2023-06-14T12:31:16;1.40;;;1.30;;
26686;SDS011;14298;50.900;4.648;2023-06-14T12:33:46;1.32;;;1.02;;
26686;SDS011;14298;50.900;4.648;2023-06-14T12:36:16;3.53;;;1.50;;
26686;SDS011;14298;50.900;4.648;2023-06-14T12:38:44;1.30;;;1.20;;
26686;SDS011;14298;50.900;4.648;2023-06-14T12:41:13;1.30;;;1.20;;
26686;SDS011;14298;50.900;4.648;2023-06-14T12:43:41;1.17;;;1.07;;
26686;SDS011;14298;50.900;4.648;2023-06-14T12:46:09;3.83;;;1.13;;
26686;SDS011;14298;50.900;4.648;2023-06-14T12:48:37;1.53;;;1.13;;
26686;SDS011;14298;50.900;4.648;2023-06-14T12:51:05;0.90;;;0.90;;
26686;SDS011;14298;50.900;4.648;2023-06-14T12:53:33;1.60;;;1.27;;
26686;SDS011;14298;50.900;4.648;2023-06-14T12:56:01;2.07;;;1.27;;
26686;SDS011;14298;50.900;4.648;2023-06-14T12:58:29;1.63;;;0.80;;
26686;SDS011;14298;50.900;4.648;2023-06-14T13:00:58;2.23;;;1.00;;
26686;SDS011;14298;50.900;4.648;2023-06-14T13:03:26;1.13;;;1.03;;
26686;SDS011;14298;50.900;4.648;2023-06-14T13:05:54;0.73;;;0.70;;
26686;SDS011;14298;50.900;4.648;2023-06-14T13:08:22;6.33;;;0.87;;
26686;SDS011;14298;50.900;4.648;2023-06-14T13:10:50;0.67;;;0.67;;
26686;SDS011;14298;50.900;4.648;2023-06-14T13:13:18;5.90;;;1.10;;
26686;SDS011;14298;50.900;4.648;2023-06-14T13:15:46;0.90;;;0.73;;
26686;SDS011;14298;50.900;4.648;2023-06-14T13:18:15;2.30;;;1.25;;
26686;SDS011;14298;50.900;4.648;2023-06-14T13:23:30;1.77;;;0.70;;
26686;SDS011;14298;50.900;4.648;2023-06-14T13:25:58;0.88;;;0.88;;
26686;SDS011;14298;50.900;4.648;2023-06-14T13:28:26;1.47;;;1.00;;
26686;SDS011;14298;50.900;4.648;2023-06-14T13:30:55;0.50;;;0.50;;
26686;SDS011;14298;50.900;4.648;2023-06-14T13:33:23;1.62;;;0.82;;
26686;SDS011;14298;50.900;4.648;2023-06-14T13:35:51;1.73;;;0.87;;
26686;SDS011;14298;50.900;4.648;2023-06-14T13:38:19;1.37;;;0.70;;
26686;SDS011;14298;50.900;4.648;2023-06-14T13:40:47;0.60;;;0.60;;
26686;SDS011;14298;50.900;4.648;2023-06-14T13:43:15;0.90;;;0.73;;
26686;SDS011;14298;50.900;4.648;2023-06-14T13:45:43;1.07;;;0.63;;
26686;SDS011;14298;50.900;4.648;2023-06-14T13:48:12;5.93;;;0.60;;
26686;SDS011;14298;50.900;4.648;2023-06-14T13:50:40;0.90;;;0.50;;
26686;SDS011;14298;50.900;4.648;2023-06-14T13:53:08;0.77;;;0.47;;
26686;SDS011;14298;50.900;4.648;2023-06-14T13:55:36;0.60;;;0.60;;
26686;SDS011;14298;50.900;4.648;2023-06-14T13:58:04;0.80;;;0.50;;
26686;SDS011;14298;50.900;4.648;2023-06-14T14:00:32;0.30;;;0.27;;
26686;SDS011;14298;50.900;4.648;2023-06-14T14:03:00;0.85;;;0.72;;
26686;SDS011;14298;50.900;4.648;2023-06-14T14:05:28;0.83;;;0.57;;
26686;SDS011;14298;50.900;4.648;2023-06-14T14:07:56;5.83;;;0.63;;
26686;SDS011;14298;50.900;4.648;2023-06-14T14:10:25;0.70;;;0.60;;
26686;SDS011;14298;50.900;4.648;2023-06-14T14:12:53;1.07;;;0.77;;
26686;SDS011;14298;50.900;4.648;2023-06-14T14:15:21;0.50;;;0.30;;
26686;SDS011;14298;50.900;4.648;2023-06-14T14:17:49;0.77;;;0.77;;
26686;SDS011;14298;50.900;4.648;2023-06-14T14:20:18;0.30;;;0.20;;
26686;SDS011;14298;50.900;4.648;2023-06-14T14:22:46;0.67;;;0.67;;
26686;SDS011;14298;50.900;4.648;2023-06-14T14:25:14;1.33;;;0.70;;
26686;SDS011;14298;50.900;4.648;2023-06-14T14:27:42;0.53;;;0.33;;
26686;SDS011;14298;50.900;4.648;2023-06-14T14:30:10;0.67;;;0.47;;
26686;SDS011;14298;50.900;4.648;2023-06-14T14:32:38;2.67;;;0.60;;
26686;SDS011;14298;50.900;4.648;2023-06-14T14:35:07;1.10;;;0.60;;
26686;SDS011;14298;50.900;4.648;2023-06-14T14:37:35;0.47;;;0.40;;
26686;SDS011;14298;50.900;4.648;2023-06-14T14:40:03;2.97;;;0.80;;
26686;SDS011;14298;50.900;4.648;2023-06-14T14:42:31;1.30;;;0.70;;
26686;SDS011;14298;50.900;4.648;2023-06-14T14:44:59;0.73;;;0.73;;
26686;SDS011;14298;50.900;4.648;2023-06-14T14:47:27;1.77;;;0.70;;
26686;SDS011;14298;50.900;4.648;2023-06-14T14:49:55;0.73;;;0.60;;
26686;SDS011;14298;50.900;4.648;2023-06-14T14:52:23;0.40;;;0.40;;
26686;SDS011;14298;50.900;4.648;2023-06-14T14:54:53;0.60;;;0.50;;
26686;SDS011;14298;50.900;4.648;2023-06-14T14:57:21;2.97;;;0.70;;
26686;SDS011;14298;50.900;4.648;2023-06-14T14:59:49;0.77;;;0.70;;
26686;SDS011;14298;50.900;4.648;2023-06-14T15:02:18;0.53;;;0.50;;
26686;SDS011;14298;50.900;4.648;2023-06-14T15:04:46;0.43;;;0.43;;
26686;SDS011;14298;50.900;4.648;2023-06-14T15:07:14;1.17;;;0.60;;
26686;SDS011;14298;50.900;4.648;2023-06-14T15:09:42;0.43;;;0.43;;
26686;SDS011;14298;50.900;4.648;2023-06-14T15:12:10;3.40;;;1.10;;
26686;SDS011;14298;50.900;4.648;2023-06-14T15:14:38;0.67;;;0.57;;
26686;SDS011;14298;50.900;4.648;2023-06-14T15:17:06;0.93;;;0.75;;
26686;SDS011;14298;50.900;4.648;2023-06-14T15:19:34;6.13;;;1.00;;
26686;SDS011;14298;50.900;4.648;2023-06-14T15:22:03;0.65;;;0.65;;
26686;SDS011;14298;50.900;4.648;2023-06-14T15:24:31;0.83;;;0.70;;
26686;SDS011;14298;50.900;4.648;2023-06-14T15:26:59;1.23;;;0.77;;
26686;SDS011;14298;50.900;4.648;2023-06-14T15:29:27;4.85;;;0.82;;
26686;SDS011;14298;50.900;4.648;2023-06-14T15:31:55;0.93;;;0.80;;
26686;SDS011;14298;50.900;4.648;2023-06-14T15:34:25;0.70;;;0.70;;
26686;SDS011;14298;50.900;4.648;2023-06-14T15:36:53;0.30;;;0.30;;
26686;SDS011;14298;50.900;4.648;2023-06-14T15:39:21;9.60;;;0.80;;
26686;SDS011;14298;50.900;4.648;2023-06-14T15:41:50;0.70;;;0.70;;